createdAt,value
2022-12-08T00:01:19.519Z,11.61
2022-12-08T00:03:47.204Z,11.78
2022-12-08T00:06:43.358Z,12.41
2022-12-08T00:09:26.808Z,12.99
2022-12-08T00:12:00.371Z,13.35
2022-12-08T00:14:36.230Z,13.94
2022-12-08T00:17:04.602Z,14.32
2022-12-08T00:19:32.058Z,15.42
2022-12-08T00:21:59.525Z,15.44
2022-12-08T00:24:31.418Z,16.85
2022-12-08T00:26:58.498Z,18.09
2022-12-08T00:29:25.334Z,20.25
2022-12-08T00:31:52.836Z,22.33
2022-12-08T00:34:20.557Z,22.94
2022-12-08T00:36:47.628Z,24.63
2022-12-08T00:39:16.676Z,26.98
2022-12-08T00:42:02.319Z,29.55
2022-12-08T00:44:29.337Z,30.49
2022-12-08T00:46:56.187Z,30.51
2022-12-08T00:49:23.295Z,32.22
2022-12-08T00:51:50.153Z,32.78
2022-12-08T00:54:18.024Z,33.83
2022-12-08T00:56:44.935Z,35.55
2022-12-08T00:59:11.890Z,36.70
2022-12-08T01:01:38.835Z,37.87
2022-12-08T01:04:07.457Z,38.76
2022-12-08T01:06:35.699Z,37.92
2022-12-08T01:09:04.932Z,39.08
2022-12-08T01:11:33.062Z,39.54
2022-12-08T01:13:59.924Z,39.54
2022-12-08T01:16:31.001Z,39.52
2022-12-08T01:18:59.557Z,40.41
2022-12-08T01:21:27.480Z,40.45
2022-12-08T01:23:55.518Z,40.72
2022-12-08T01:26:22.732Z,40.56
2022-12-08T01:28:49.732Z,42.00
2022-12-08T01:31:20.164Z,41.27
2022-12-08T01:33:48.319Z,41.24
2022-12-08T01:36:25.223Z,40.90
2022-12-08T01:38:53.624Z,41.39
2022-12-08T01:41:24.162Z,42.09
2022-12-08T01:44:14.057Z,42.61
2022-12-08T01:46:44.796Z,42.33
2022-12-08T01:49:24.988Z,41.92
2022-12-08T01:52:02.873Z,42.81
2022-12-08T01:54:34.647Z,44.12
2022-12-08T01:57:11.749Z,44.18
2022-12-08T01:59:49.836Z,45.20
2022-12-08T02:02:16.861Z,45.52
2022-12-08T02:04:43.948Z,46.30
2022-12-08T02:07:14.482Z,47.11
2022-12-08T02:09:42.782Z,47.56
2022-12-08T02:12:11.110Z,48.27
2022-12-08T02:14:38.497Z,47.68
2022-12-08T02:17:31.935Z,47.85
2022-12-08T02:20:31.249Z,49.37
2022-12-08T02:23:08.237Z,48.35
2022-12-08T02:26:31.778Z,48.18
2022-12-08T02:29:27.612Z,49.02
2022-12-08T02:32:12.488Z,49.21
2022-12-08T02:35:09.379Z,48.61
2022-12-08T02:38:01.454Z,48.12
2022-12-08T02:40:37.251Z,47.99
2022-12-08T02:43:14.413Z,46.80
2022-12-08T02:45:54.058Z,47.22
2022-12-08T02:48:21.402Z,48.29
2022-12-08T02:50:48.444Z,47.34
2022-12-08T02:55:57.808Z,48.46
2022-12-08T02:58:43.493Z,48.32
2022-12-08T03:01:35.549Z,49.13
2022-12-08T03:04:22.126Z,48.67
2022-12-08T03:07:02.653Z,48.83
2022-12-08T03:09:34.052Z,48.49
2022-12-08T03:12:20.495Z,48.41
2022-12-08T03:14:53.633Z,46.57
2022-12-08T03:17:26.139Z,47.98
2022-12-08T03:19:54.986Z,47.41
2022-12-08T03:22:25.804Z,47.80
2022-12-08T03:24:54.664Z,47.88
2022-12-08T03:27:26.664Z,48.13
2022-12-08T03:29:55.671Z,47.73
2022-12-08T03:32:27.515Z,46.88
2022-12-08T03:34:58.418Z,48.24
2022-12-08T03:37:27.409Z,47.83
2022-12-08T03:39:54.604Z,48.71
2022-12-08T03:42:21.684Z,49.83
2022-12-08T03:44:48.615Z,49.89
2022-12-08T03:47:15.456Z,50.91
2022-12-08T03:49:42.306Z,48.88
2022-12-08T03:52:09.326Z,49.66
2022-12-08T03:54:36.396Z,49.22
2022-12-08T03:57:03.284Z,47.08
2022-12-08T03:59:30.199Z,46.25
2022-12-08T04:01:57.206Z,46.14
2022-12-08T04:04:24.119Z,47.06
2022-12-08T04:06:51.308Z,45.90
2022-12-08T04:09:18.374Z,45.71
2022-12-08T04:11:45.386Z,44.29
2022-12-08T04:14:12.440Z,42.79
2022-12-08T04:16:39.463Z,43.25
2022-12-08T04:19:06.571Z,41.46
2022-12-08T04:21:33.727Z,39.92
2022-12-08T04:24:01.494Z,39.06
2022-12-08T04:26:29.162Z,37.91
2022-12-08T04:28:56.191Z,36.91
2022-12-08T04:31:23.121Z,35.93
2022-12-08T04:33:50.050Z,35.00
2022-12-08T04:36:17.047Z,33.93
2022-12-08T04:38:44.124Z,33.04
2022-12-08T04:41:11.169Z,33.59
2022-12-08T04:43:38.173Z,32.85
2022-12-08T04:46:08.930Z,30.89
2022-12-08T04:48:40.797Z,30.29
2022-12-08T04:51:16.174Z,30.42
2022-12-08T04:53:46.695Z,29.12
2022-12-08T04:56:19.054Z,28.92
2022-12-08T04:58:46.947Z,27.74
2022-12-08T05:01:14.422Z,27.41
2022-12-08T05:03:41.615Z,28.01
2022-12-08T05:06:12.281Z,27.68
2022-12-08T05:08:39.361Z,26.82
2022-12-08T05:11:09.017Z,27.54
2022-12-08T05:13:35.984Z,27.14
2022-12-08T05:16:12.569Z,26.79
2022-12-08T05:18:41.179Z,28.10
2022-12-08T05:21:08.468Z,28.43
2022-12-08T05:23:36.003Z,29.50
2022-12-08T05:26:03.091Z,29.47
2022-12-08T05:28:41.290Z,29.13
2022-12-08T05:31:09.314Z,28.38
2022-12-08T05:33:36.404Z,28.12
2022-12-08T05:36:03.521Z,28.55
2022-12-08T05:38:30.846Z,29.27
2022-12-08T05:40:58.483Z,28.55
2022-12-08T05:43:25.598Z,29.62
2022-12-08T05:45:52.818Z,29.35
2022-12-08T05:48:19.857Z,29.58
2022-12-08T05:50:48.255Z,29.31
2022-12-08T05:53:16.747Z,30.37
2022-12-08T05:55:44.406Z,30.29
2022-12-08T05:58:15.618Z,30.89
2022-12-08T06:00:42.578Z,31.67
2022-12-08T06:03:12.178Z,31.87
2022-12-08T06:05:41.378Z,33.12
2022-12-08T06:08:09.216Z,31.11
2022-12-08T06:10:39.077Z,29.49
2022-12-08T06:13:06.114Z,29.01
2022-12-08T06:15:39.702Z,28.88
2022-12-08T06:18:07.711Z,29.22
2022-12-08T06:20:35.101Z,29.93
2022-12-08T06:23:03.357Z,29.49
2022-12-08T06:25:30.471Z,30.24
2022-12-08T06:27:57.523Z,29.78
2022-12-08T06:30:24.471Z,30.75
2022-12-08T06:32:51.473Z,31.13
2022-12-08T06:35:18.303Z,31.08
2022-12-08T06:37:45.140Z,31.74
2022-12-08T06:40:12.324Z,29.22
2022-12-08T06:42:45.145Z,27.13
2022-12-08T06:45:17.730Z,26.16
2022-12-08T06:47:45.009Z,25.12
2022-12-08T06:50:13.503Z,24.64
2022-12-08T06:52:50.828Z,22.67
2022-12-08T06:55:50.836Z,22.24
2022-12-08T06:58:10.307Z,21.61
2022-12-08T07:00:37.650Z,19.44
2022-12-08T07:03:04.676Z,20.27
2022-12-08T07:05:31.718Z,20.59
2022-12-08T07:07:58.832Z,21.50
2022-12-08T07:10:25.806Z,15.05
2022-12-08T07:12:52.986Z,13.01
2022-12-08T07:15:20.004Z,11.86
2022-12-08T07:17:53.599Z,11.35
2022-12-08T07:20:23.202Z,11.29
2022-12-08T07:22:51.548Z,12.31
2022-12-08T07:25:19.255Z,13.57
2022-12-08T07:27:46.505Z,14.26
2022-12-08T07:30:14.006Z,15.95
2022-12-08T07:32:40.888Z,20.54
2022-12-08T07:35:08.901Z,17.31
2022-12-08T07:37:37.561Z,17.66
2022-12-08T07:40:06.886Z,17.52
2022-12-08T07:42:34.585Z,18.85
2022-12-08T07:45:02.196Z,20.14
2022-12-08T07:47:29.228Z,19.47
2022-12-08T07:49:56.344Z,18.95
2022-12-08T07:52:23.334Z,18.77
2022-12-08T07:54:50.261Z,15.68
2022-12-08T07:57:17.436Z,14.48
2022-12-08T07:59:44.393Z,13.62
2022-12-08T08:02:35.957Z,13.15
2022-12-08T08:05:03.305Z,11.77
2022-12-08T08:08:00.265Z,12.14
2022-12-08T08:10:24.586Z,13.53
2022-12-08T08:14:45.554Z,13.14
2022-12-08T08:17:19.684Z,13.78
2022-12-08T08:19:47.563Z,15.22
2022-12-08T08:22:20.276Z,15.81
2022-12-08T08:24:55.624Z,15.49
2022-12-08T08:27:23.042Z,14.96
2022-12-08T08:29:50.090Z,14.83
2022-12-08T08:32:17.157Z,15.76
2022-12-08T08:34:44.031Z,16.56
2022-12-08T08:37:11.011Z,18.53
2022-12-08T08:39:38.097Z,22.09
2022-12-08T08:42:05.255Z,19.73
2022-12-08T08:44:32.350Z,20.81
2022-12-08T08:46:59.380Z,21.74
2022-12-08T08:49:26.590Z,22.43
2022-12-08T08:51:53.536Z,23.09
2022-12-08T08:54:20.394Z,24.11
2022-12-08T08:56:48.204Z,23.21
2022-12-08T08:59:15.268Z,23.62
2022-12-08T09:01:42.218Z,23.78
2022-12-08T09:04:10.114Z,24.99
2022-12-08T09:06:37.319Z,26.89
2022-12-08T09:09:05.417Z,27.70
2022-12-08T09:11:33.046Z,28.78
2022-12-08T09:13:59.965Z,31.22
2022-12-08T09:16:27.198Z,31.36
2022-12-08T09:18:54.249Z,33.76
2022-12-08T09:21:25.723Z,34.11
2022-12-08T09:23:56.125Z,34.68
2022-12-08T09:26:24.741Z,33.25
2022-12-08T09:28:53.964Z,32.20
2022-12-08T09:31:22.829Z,32.14
2022-12-08T09:33:53.640Z,31.47
2022-12-08T09:36:20.793Z,30.83
2022-12-08T09:38:49.080Z,30.70
2022-12-08T09:41:40.224Z,31.89
2022-12-08T09:44:25.450Z,32.25
2022-12-08T09:46:54.467Z,33.01
2022-12-08T09:49:35.424Z,35.01
2022-12-08T09:52:04.326Z,34.50
2022-12-08T09:54:35.847Z,35.78
2022-12-08T09:57:13.136Z,35.84
2022-12-08T09:59:41.281Z,35.04
2022-12-08T10:02:24.382Z,35.26
2022-12-08T10:04:55.292Z,36.64
2022-12-08T10:07:22.533Z,36.00
2022-12-08T10:10:07.987Z,37.62
2022-12-08T10:12:51.905Z,35.72
2022-12-08T10:15:39.798Z,35.26
2022-12-08T10:18:17.900Z,35.69
2022-12-08T10:20:48.411Z,34.13
2022-12-08T10:23:32.908Z,33.53
2022-12-08T10:26:12.427Z,28.87
2022-12-08T10:28:44.729Z,25.96
2022-12-08T10:31:24.551Z,24.38
2022-12-08T10:33:59.984Z,21.53
2022-12-08T10:36:52.246Z,20.46
2022-12-08T10:39:33.094Z,20.59
2022-12-08T10:42:04.187Z,20.21
2022-12-08T10:44:31.104Z,18.84
2022-12-08T10:46:58.478Z,17.72
2022-12-08T10:49:32.251Z,16.63
2022-12-08T10:51:59.395Z,15.74
2022-12-08T10:54:33.495Z,15.45
2022-12-08T10:57:00.676Z,15.52
2022-12-08T10:59:27.944Z,14.33
2022-12-08T11:01:57.083Z,12.28
2022-12-08T11:04:42.187Z,11.05
2022-12-08T11:07:13.655Z,11.10
2022-12-08T11:09:49.408Z,10.90
2022-12-08T11:12:19.422Z,11.19
2022-12-08T11:14:56.131Z,10.83
2022-12-08T11:17:22.927Z,10.54
2022-12-08T11:20:18.939Z,9.30
2022-12-08T11:22:54.974Z,9.49
2022-12-08T11:25:27.609Z,9.60
2022-12-08T11:27:59.993Z,9.53
2022-12-08T11:30:47.539Z,9.62
2022-12-08T11:33:23.521Z,9.39
2022-12-08T11:36:03.600Z,8.94
2022-12-08T11:38:33.755Z,8.24
2022-12-08T11:41:14.174Z,8.31
2022-12-08T11:44:01.110Z,7.81
2022-12-08T11:46:36.764Z,8.12
2022-12-08T11:49:13.097Z,7.24
2022-12-08T11:51:40.070Z,7.04
2022-12-08T11:54:24.138Z,8.08
2022-12-08T11:56:57.366Z,7.61
2022-12-08T11:59:32.243Z,7.38
2022-12-08T12:02:02.617Z,7.51
2022-12-08T12:04:47.464Z,7.92
2022-12-08T12:07:42.325Z,8.78
2022-12-08T12:10:21.255Z,7.18
2022-12-08T12:13:25.230Z,7.51
2022-12-08T12:16:39.219Z,8.37
2022-12-08T12:19:14.653Z,9.06
2022-12-08T12:21:52.903Z,9.82
2022-12-08T12:24:35.546Z,10.73
2022-12-08T12:27:07.840Z,10.63
2022-12-08T12:29:39.182Z,13.56
2022-12-08T12:32:10.020Z,12.68
2022-12-08T12:34:48.982Z,12.89
2022-12-08T12:37:25.324Z,13.68
2022-12-08T12:39:52.422Z,14.58
2022-12-08T12:43:09.662Z,16.10
2022-12-08T12:45:43.372Z,17.30
2022-12-08T12:48:22.433Z,18.33
2022-12-08T12:50:55.058Z,19.20
2022-12-08T12:53:21.895Z,21.24
2022-12-08T12:56:03.839Z,22.10
2022-12-08T12:58:30.860Z,24.90
2022-12-08T13:01:12.962Z,26.62
2022-12-08T13:03:51.837Z,27.04
2022-12-08T13:06:32.316Z,34.40
2022-12-08T13:09:00.428Z,29.00
2022-12-08T13:11:27.663Z,28.46
2022-12-08T13:14:04.671Z,26.48
2022-12-08T13:16:39.885Z,23.34
2022-12-08T13:19:16.117Z,23.30
2022-12-08T13:21:43.016Z,24.47
2022-12-08T13:24:30.803Z,23.81
2022-12-08T13:27:03.908Z,24.14
2022-12-08T13:29:32.696Z,24.47
2022-12-08T13:32:04.922Z,24.18
2022-12-08T13:34:54.881Z,23.75
2022-12-08T13:37:50.716Z,23.30
2022-12-08T13:40:27.339Z,27.04
2022-12-08T13:43:16.254Z,25.25
2022-12-08T13:46:48.662Z,23.95
2022-12-08T13:57:36.707Z,20.94
2022-12-08T14:00:16.093Z,20.30
2022-12-08T14:02:49.337Z,20.66
2022-12-08T14:05:34.683Z,20.96
2022-12-08T14:08:36.301Z,24.96
2022-12-08T14:11:33.535Z,25.15
2022-12-08T14:14:45.832Z,25.67
2022-12-08T14:17:15.536Z,26.35
2022-12-08T14:19:44.884Z,28.53
2022-12-08T14:22:15.776Z,28.48
2022-12-08T14:24:47.841Z,28.92
2022-12-08T14:27:24.096Z,29.35
2022-12-08T14:29:59.959Z,31.89
2022-12-08T14:32:34.098Z,31.93
2022-12-08T14:35:06.721Z,33.22
2022-12-08T14:37:42.422Z,31.54
2022-12-08T14:40:22.711Z,31.17
2022-12-08T14:43:07.909Z,32.38
2022-12-08T14:45:47.123Z,32.23
2022-12-08T14:48:39.024Z,32.20
2022-12-08T14:51:08.842Z,38.38
2022-12-08T14:53:40.243Z,42.87
2022-12-08T14:56:31.537Z,34.71
2022-12-08T14:59:16.367Z,70.06
2022-12-08T15:01:45.112Z,80.43
2022-12-08T15:04:12.021Z,61.81
2022-12-08T15:07:00.566Z,35.23
2022-12-08T15:09:35.207Z,47.99
2022-12-08T15:12:05.004Z,41.75
2022-12-08T15:14:34.703Z,36.54
2022-12-08T15:17:01.740Z,35.13
2022-12-08T15:19:31.651Z,39.48
2022-12-08T15:22:13.597Z,49.60
2022-12-08T15:24:40.640Z,43.75
2022-12-08T15:27:10.627Z,40.84
2022-12-08T15:29:37.690Z,37.07
2022-12-08T15:32:05.896Z,35.80
2022-12-08T15:34:32.910Z,33.81
2022-12-08T15:36:59.797Z,33.65
2022-12-08T15:39:39.236Z,35.02
2022-12-08T15:42:14.911Z,35.29
2022-12-08T15:44:41.928Z,33.52
2022-12-08T15:47:19.806Z,35.05
2022-12-08T15:49:49.481Z,35.12
2022-12-08T15:52:20.854Z,34.86
2022-12-08T15:54:49.015Z,34.70
2022-12-08T15:57:53.557Z,33.96
2022-12-08T16:00:51.763Z,32.04
2022-12-08T16:04:09.006Z,31.90
2022-12-08T16:09:13.588Z,37.34
2022-12-08T16:12:08.874Z,32.10
2022-12-08T16:17:27.240Z,29.38
2022-12-08T16:19:55.150Z,29.12
2022-12-08T16:25:18.668Z,29.82
2022-12-08T16:30:33.954Z,32.79
2022-12-08T16:33:01.065Z,30.08
2022-12-08T16:35:27.977Z,32.25
2022-12-08T16:37:55.107Z,34.57
2022-12-08T16:40:22.063Z,35.11
2022-12-08T16:42:50.295Z,35.84
2022-12-08T16:45:24.873Z,37.06
2022-12-08T16:47:55.011Z,35.72
2022-12-08T16:50:28.716Z,40.55
2022-12-08T16:52:59.417Z,59.56
2022-12-08T16:55:27.406Z,38.04
2022-12-08T16:57:55.186Z,37.64
2022-12-08T17:00:24.925Z,37.68
2022-12-08T17:02:53.321Z,38.90
2022-12-08T17:05:22.318Z,38.88
2022-12-08T17:07:51.289Z,38.52
2022-12-08T17:10:23.033Z,39.88
2022-12-08T17:12:51.359Z,39.07
2022-12-08T17:15:21.575Z,37.80
2022-12-08T17:17:48.896Z,37.28
2022-12-08T17:20:20.037Z,36.91
2022-12-08T17:22:47.477Z,36.76
2022-12-08T17:25:15.500Z,37.16
2022-12-08T17:27:42.782Z,35.93
2022-12-08T17:30:14.876Z,38.53
2022-12-08T17:32:43.021Z,37.96
2022-12-08T17:35:14.236Z,39.88
2022-12-08T17:37:42.912Z,36.71
2022-12-08T17:40:12.756Z,37.79
2022-12-08T17:42:42.811Z,36.90
2022-12-08T17:45:10.219Z,36.91
2022-12-08T17:47:37.291Z,37.74
2022-12-08T17:50:06.405Z,38.48
2022-12-08T17:52:34.019Z,38.89
2022-12-08T17:55:00.889Z,38.37
2022-12-08T17:57:27.797Z,38.04
2022-12-08T17:59:54.701Z,41.44
2022-12-08T18:02:21.788Z,39.52
2022-12-08T18:04:48.670Z,37.79
2022-12-08T18:07:15.599Z,38.27
2022-12-08T18:09:42.456Z,38.05
2022-12-08T18:12:09.277Z,39.42
2022-12-08T18:14:36.312Z,40.42
2022-12-08T18:17:03.515Z,39.38
2022-12-08T18:19:30.712Z,38.72
2022-12-08T18:21:57.808Z,38.36
2022-12-08T18:24:24.915Z,38.00
2022-12-08T18:26:52.593Z,39.49
2022-12-08T18:29:20.775Z,38.19
2022-12-08T18:31:48.033Z,37.93
2022-12-08T18:34:15.138Z,39.58
2022-12-08T18:36:42.026Z,39.23
2022-12-08T18:39:24.422Z,39.58
2022-12-08T18:41:52.654Z,40.87
2022-12-08T18:44:20.139Z,41.86
2022-12-08T18:46:47.778Z,40.50
2022-12-08T18:49:18.632Z,40.98
2022-12-08T18:51:46.074Z,39.78
2022-12-08T18:54:13.784Z,39.29
2022-12-08T18:56:40.737Z,39.40
2022-12-08T18:59:11.761Z,39.11
2022-12-08T19:01:40.644Z,39.27
2022-12-08T19:04:27.785Z,37.66
2022-12-08T19:06:55.503Z,39.74
2022-12-08T19:09:22.831Z,40.50
2022-12-08T19:11:50.049Z,39.51
2022-12-08T19:14:18.405Z,40.01
2022-12-08T19:16:48.175Z,39.43
2022-12-08T19:19:15.260Z,40.94
2022-12-08T19:21:46.339Z,40.11
2022-12-08T19:24:13.744Z,41.47
2022-12-08T19:26:40.672Z,43.50
2022-12-08T19:29:07.775Z,46.04
2022-12-08T19:31:35.227Z,50.24
2022-12-08T19:34:02.287Z,50.16
2022-12-08T19:36:35.198Z,47.55
2022-12-08T19:39:21.730Z,45.94
2022-12-08T19:42:07.815Z,45.34
2022-12-08T19:44:52.612Z,46.96
2022-12-08T19:47:23.698Z,45.58
2022-12-08T19:49:51.641Z,45.09
2022-12-08T19:52:18.863Z,45.43
2022-12-08T19:54:46.384Z,44.14
2022-12-08T19:57:13.516Z,43.06
2022-12-08T19:59:40.487Z,41.32
2022-12-08T20:02:07.541Z,40.60
2022-12-08T20:04:34.743Z,40.28
2022-12-08T20:07:02.076Z,40.83
2022-12-08T20:09:29.019Z,42.87
2022-12-08T20:11:56.093Z,43.15
2022-12-08T20:14:23.476Z,44.79
2022-12-08T20:16:50.744Z,44.03
2022-12-08T20:19:18.607Z,41.14
2022-12-08T20:21:45.944Z,41.58
2022-12-08T20:24:13.033Z,40.09
2022-12-08T20:26:40.029Z,38.89
2022-12-08T20:29:07.095Z,40.02
2022-12-08T20:31:34.341Z,41.37
2022-12-08T20:34:01.880Z,43.44
2022-12-08T20:36:29.375Z,44.47
2022-12-08T20:38:57.435Z,46.76
2022-12-08T20:41:24.617Z,45.28
2022-12-08T20:43:52.122Z,48.97
2022-12-08T20:46:21.082Z,47.75
2022-12-08T20:48:48.408Z,46.04
2022-12-08T20:51:18.821Z,43.75
2022-12-08T20:53:46.451Z,42.57
2022-12-08T20:56:17.953Z,42.39
2022-12-08T20:58:45.111Z,42.20
2022-12-08T21:01:14.993Z,42.09
2022-12-08T21:03:44.163Z,39.88
2022-12-08T21:06:12.735Z,38.19
2022-12-08T21:08:41.885Z,39.51
2022-12-08T21:11:10.006Z,42.05
2022-12-08T21:13:37.941Z,41.03
2022-12-08T21:16:06.008Z,39.86
2022-12-08T21:18:38.945Z,39.25
2022-12-08T21:21:10.671Z,37.46
2022-12-08T21:23:37.557Z,36.90
2022-12-08T21:26:18.692Z,36.00
2022-12-08T21:28:46.965Z,36.05
2022-12-08T21:31:16.489Z,36.74
2022-12-08T21:33:43.487Z,35.36
2022-12-08T21:36:13.717Z,34.96
2022-12-08T21:38:42.670Z,35.76
2022-12-08T21:41:16.236Z,35.83
2022-12-08T21:43:43.302Z,35.41
2022-12-08T21:46:17.187Z,35.74
2022-12-08T21:48:44.617Z,36.22
2022-12-08T21:51:11.652Z,35.21
2022-12-08T21:53:38.630Z,35.07
2022-12-08T21:56:09.579Z,34.80
2022-12-08T21:58:36.701Z,34.18
2022-12-08T22:01:11.897Z,34.78
2022-12-08T22:03:39.970Z,33.31
2022-12-08T22:06:13.120Z,35.39
2022-12-08T22:08:41.233Z,34.72
2022-12-08T22:11:08.450Z,35.69
2022-12-08T22:13:36.279Z,35.44
2022-12-08T22:16:06.158Z,34.95
2022-12-08T22:18:34.944Z,35.63
2022-12-08T22:21:07.258Z,34.37
2022-12-08T22:23:34.604Z,34.61
2022-12-08T22:26:03.369Z,34.93
2022-12-08T22:28:33.975Z,34.88
2022-12-08T22:31:08.204Z,35.28
2022-12-08T22:33:35.775Z,35.63
2022-12-08T22:36:10.082Z,35.09
2022-12-08T22:38:37.957Z,35.28
2022-12-08T22:41:06.080Z,34.77
2022-12-08T22:43:34.125Z,34.04
2022-12-08T22:46:01.620Z,35.43
2022-12-08T22:48:29.007Z,36.99
2022-12-08T22:51:00.675Z,37.98
2022-12-08T22:53:28.612Z,39.71
2022-12-08T22:55:55.609Z,39.57
2022-12-08T22:58:22.787Z,37.31
2022-12-08T23:00:50.508Z,36.05
2022-12-08T23:03:17.819Z,35.63
2022-12-08T23:05:45.072Z,35.43
2022-12-08T23:08:15.958Z,35.89
2022-12-08T23:10:44.745Z,35.21
2022-12-08T23:13:14.049Z,35.68
2022-12-08T23:15:41.351Z,35.45
2022-12-08T23:18:12.443Z,35.10
2022-12-08T23:20:39.474Z,35.38
2022-12-08T23:23:06.935Z,35.61
2022-12-08T23:25:33.988Z,37.33
2022-12-08T23:28:01.031Z,41.36
2022-12-08T23:30:28.159Z,39.83
2022-12-08T23:32:56.361Z,40.98
2022-12-08T23:35:23.292Z,40.09
2022-12-08T23:37:50.365Z,39.62
2022-12-08T23:40:17.700Z,40.55
2022-12-08T23:42:44.809Z,40.56
2022-12-08T23:45:12.049Z,39.90
2022-12-08T23:47:38.990Z,40.33
2022-12-08T23:50:07.453Z,41.14
2022-12-08T23:52:35.371Z,41.37
2022-12-08T23:55:02.871Z,42.19
2022-12-08T23:57:30.077Z,41.77
2022-12-08T23:59:57.127Z,42.19
